createdAt,value
2023-05-18T00:02:29.324Z,8.21
2023-05-18T00:05:31.375Z,8.21
2023-05-18T00:08:34.456Z,8.20
2023-05-18T00:11:36.093Z,8.20
2023-05-18T00:14:37.811Z,8.19
2023-05-18T00:17:39.543Z,8.19
2023-05-18T00:20:41.455Z,8.19
2023-05-18T00:23:43.054Z,8.19
2023-05-18T00:26:46.660Z,8.18
2023-05-18T00:29:48.343Z,8.17
2023-05-18T00:32:50.145Z,8.16
2023-05-18T00:35:51.753Z,8.16
2023-05-18T00:38:53.373Z,8.15
2023-05-18T00:41:55.039Z,8.13
2023-05-18T00:44:56.690Z,8.13
2023-05-18T00:47:58.414Z,8.13
2023-05-18T00:51:00.614Z,8.13
2023-05-18T00:54:02.376Z,8.12
2023-05-18T00:57:04.303Z,8.11
2023-05-18T01:00:06.855Z,8.10
2023-05-18T01:03:08.651Z,8.06
2023-05-18T01:06:10.657Z,8.06
2023-05-18T01:09:12.474Z,8.04
2023-05-18T01:12:29.961Z,8.03
2023-05-18T01:15:34.470Z,8.01
2023-05-18T01:18:43.605Z,8.02
2023-05-18T01:21:57.217Z,8.01
2023-05-18T01:25:04.666Z,8.01
2023-05-18T01:28:09.755Z,8.00
2023-05-18T01:31:11.408Z,8.00
2023-05-18T01:34:13.150Z,7.98
2023-05-18T01:37:14.919Z,7.97
2023-05-18T01:40:16.562Z,7.96
2023-05-18T01:43:20.544Z,7.96
2023-05-18T01:46:41.007Z,7.95
2023-05-18T01:49:45.684Z,7.95
2023-05-18T01:53:05.728Z,7.95
2023-05-18T01:56:08.335Z,7.95
2023-05-18T01:59:10.143Z,7.94
2023-05-18T02:02:12.135Z,7.96
2023-05-18T02:05:13.858Z,7.98
2023-05-18T02:08:15.467Z,7.96
2023-05-18T02:11:17.036Z,7.94
2023-05-18T02:14:18.608Z,7.94
2023-05-18T02:17:20.347Z,7.94
2023-05-18T02:20:22.068Z,7.93
2023-05-18T02:23:23.669Z,7.91
2023-05-18T02:26:25.349Z,7.89
2023-05-18T02:29:27.029Z,7.88
2023-05-18T02:32:28.678Z,7.87
2023-05-18T02:35:30.811Z,7.85
2023-05-18T02:38:32.808Z,7.84
2023-05-18T02:41:35.206Z,7.85
2023-05-18T02:44:36.872Z,7.85
2023-05-18T02:47:38.616Z,7.86
2023-05-18T02:50:40.318Z,7.85
2023-05-18T02:53:41.922Z,7.84
2023-05-18T02:56:43.527Z,7.84
2023-05-18T02:59:45.144Z,7.85
2023-05-18T03:02:46.952Z,7.85
2023-05-18T03:05:48.723Z,7.85
2023-05-18T03:08:50.941Z,7.85
2023-05-18T03:11:52.547Z,7.85
2023-05-18T03:14:54.300Z,7.85
2023-05-18T03:17:55.959Z,7.84
2023-05-18T03:20:57.660Z,7.84
2023-05-18T03:24:00.141Z,7.85
2023-05-18T03:27:01.818Z,7.82
2023-05-18T03:30:04.105Z,7.77
2023-05-18T03:33:06.075Z,7.73
2023-05-18T03:36:08.010Z,7.68
2023-05-18T03:39:09.638Z,7.64
2023-05-18T03:42:11.463Z,7.61
2023-05-18T03:45:13.092Z,7.57
2023-05-18T03:48:14.754Z,7.53
2023-05-18T03:51:16.813Z,7.48
2023-05-18T03:54:18.394Z,7.45
2023-05-18T03:57:20.059Z,7.43
2023-05-18T04:00:21.814Z,7.43
2023-05-18T04:03:23.608Z,7.43
2023-05-18T04:06:25.453Z,7.45
2023-05-18T04:09:27.102Z,7.47
2023-05-18T04:12:28.795Z,7.48
2023-05-18T04:15:30.535Z,7.49
2023-05-18T04:18:32.497Z,7.51
2023-05-18T04:21:34.079Z,7.52
2023-05-18T04:24:35.628Z,7.48
2023-05-18T04:27:37.872Z,7.36
2023-05-18T04:30:39.485Z,7.24
2023-05-18T04:33:41.122Z,7.11
2023-05-18T04:36:42.718Z,7.01
2023-05-18T04:39:44.477Z,6.92
2023-05-18T04:42:46.207Z,6.86
2023-05-18T04:45:47.945Z,6.77
2023-05-18T04:48:49.704Z,6.72
2023-05-18T04:51:52.913Z,6.69
2023-05-18T04:54:54.513Z,6.66
2023-05-18T04:57:56.258Z,6.67
2023-05-18T05:01:01.005Z,6.67
2023-05-18T05:04:02.603Z,6.71
2023-05-18T05:07:04.357Z,6.76
2023-05-18T05:10:06.571Z,6.83
2023-05-18T05:13:08.220Z,6.92
2023-05-18T05:16:09.831Z,6.98
2023-05-18T05:19:11.565Z,7.06
2023-05-18T05:22:13.275Z,7.15
2023-05-18T05:25:15.307Z,7.20
2023-05-18T05:28:16.979Z,7.23
2023-05-18T05:31:18.663Z,7.27
2023-05-18T05:34:20.496Z,7.28
2023-05-18T05:37:22.213Z,7.27
2023-05-18T05:40:24.243Z,7.25
2023-05-18T05:43:26.075Z,7.24
2023-05-18T05:46:27.785Z,7.27
2023-05-18T05:49:29.525Z,7.29
2023-05-18T05:52:31.221Z,7.33
2023-05-18T05:55:33.128Z,7.37
2023-05-18T05:58:34.951Z,7.37
2023-05-18T06:01:36.646Z,7.34
2023-05-18T06:04:38.575Z,7.36
2023-05-18T06:07:40.263Z,7.36
2023-05-18T06:10:41.890Z,7.34
2023-05-18T06:13:43.416Z,7.33
2023-05-18T06:16:45.163Z,7.33
2023-05-18T06:19:46.778Z,7.34
2023-05-18T06:22:48.666Z,7.38
2023-05-18T06:25:50.379Z,7.40
2023-05-18T06:28:52.053Z,7.41
2023-05-18T06:31:53.986Z,7.45
2023-05-18T06:34:55.823Z,7.49
2023-05-18T06:37:57.431Z,7.53
2023-05-18T06:40:59.177Z,7.57
2023-05-18T06:44:01.160Z,7.60
2023-05-18T06:47:03.191Z,7.67
2023-05-18T06:50:05.100Z,7.73
2023-05-18T06:53:06.724Z,7.78
2023-05-18T06:56:08.399Z,7.83
2023-05-18T06:59:10.117Z,7.87
2023-05-18T07:02:11.903Z,7.92
2023-05-18T07:05:13.674Z,7.96
2023-05-18T07:08:15.359Z,7.95
2023-05-18T07:11:16.975Z,7.90
2023-05-18T07:14:18.603Z,7.93
2023-05-18T07:17:20.251Z,8.01
2023-05-18T07:20:23.124Z,8.06
2023-05-18T07:23:26.714Z,8.00
2023-05-18T07:26:28.293Z,8.00
2023-05-18T07:29:30.441Z,8.01
2023-05-18T07:32:32.119Z,8.00
2023-05-18T07:35:33.866Z,8.00
2023-05-18T07:38:35.685Z,8.04
2023-05-18T07:41:37.333Z,8.05
2023-05-18T07:44:38.950Z,7.98
2023-05-18T07:47:40.681Z,8.02
2023-05-18T07:50:42.308Z,7.96
2023-05-18T07:53:43.973Z,7.82
2023-05-18T07:56:45.532Z,7.79
2023-05-18T07:59:47.163Z,7.77
2023-05-18T08:02:49.100Z,7.77
2023-05-18T08:05:50.958Z,7.87
2023-05-18T08:08:52.843Z,8.00
2023-05-18T08:11:54.498Z,7.98
2023-05-18T08:14:56.863Z,8.01
2023-05-18T08:17:58.476Z,8.19
2023-05-18T08:21:03.209Z,8.25
2023-05-18T08:24:06.249Z,8.39
2023-05-18T08:27:07.880Z,8.51
2023-05-18T08:30:10.160Z,8.60
2023-05-18T08:33:11.912Z,8.65
2023-05-18T08:36:13.735Z,8.72
2023-05-18T08:39:15.409Z,8.79
2023-05-18T08:42:24.488Z,8.70
2023-05-18T08:45:44.073Z,8.33
2023-05-18T08:48:45.959Z,8.24
2023-05-18T08:51:55.443Z,8.14
2023-05-18T08:54:57.450Z,8.00
2023-05-18T08:57:59.346Z,7.99
2023-05-18T09:01:01.021Z,8.13
2023-05-18T09:04:02.720Z,8.08
2023-05-18T09:07:05.404Z,8.18
2023-05-18T09:10:07.742Z,8.34
2023-05-18T09:13:09.888Z,8.48
2023-05-18T09:16:11.598Z,8.52
2023-05-18T09:19:13.404Z,8.72
2023-05-18T09:22:15.297Z,8.95
2023-05-18T09:25:18.012Z,9.18
2023-05-18T09:28:46.501Z,9.32
2023-05-18T09:31:48.693Z,9.39
2023-05-18T09:34:50.490Z,9.46
2023-05-18T09:37:52.104Z,9.54
2023-05-18T09:40:53.940Z,9.62
2023-05-18T09:43:55.595Z,9.71
2023-05-18T09:46:57.396Z,9.67
2023-05-18T09:49:59.054Z,9.66
2023-05-18T09:53:00.756Z,9.71
2023-05-18T09:56:05.089Z,9.71
2023-05-18T09:59:14.861Z,9.81
2023-05-18T10:02:18.667Z,9.91
2023-05-18T10:05:22.170Z,9.92
2023-05-18T10:08:23.834Z,9.82
2023-05-18T10:11:25.496Z,9.74
2023-05-18T10:14:28.193Z,9.64
2023-05-18T10:17:32.601Z,9.61
2023-05-18T10:20:34.795Z,9.48
2023-05-18T10:23:37.177Z,9.35
2023-05-18T10:26:39.330Z,9.33
2023-05-18T10:29:41.082Z,9.32
2023-05-18T10:32:43.433Z,9.36
2023-05-18T10:35:45.836Z,9.49
2023-05-18T10:38:48.388Z,9.57
2023-05-18T10:41:51.518Z,9.58
2023-05-18T10:44:53.667Z,9.60
2023-05-18T10:47:57.412Z,9.50
2023-05-18T10:50:59.173Z,9.48
2023-05-18T10:54:11.827Z,9.51
2023-05-18T10:57:16.576Z,9.49
2023-05-18T11:00:18.844Z,9.29
2023-05-18T11:03:20.961Z,9.31
2023-05-18T11:06:24.366Z,9.35
2023-05-18T11:09:26.583Z,9.32
2023-05-18T11:12:28.346Z,9.30
2023-05-18T11:15:51.929Z,9.29
2023-05-18T11:18:53.559Z,9.22
2023-05-18T11:21:55.264Z,9.01
2023-05-18T11:24:56.868Z,8.84
2023-05-18T11:28:03.790Z,8.84
2023-05-18T11:31:05.425Z,8.80
2023-05-18T11:34:39.100Z,8.72
2023-05-18T11:37:41.420Z,8.68
2023-05-18T11:40:47.192Z,8.67
2023-05-18T11:44:04.722Z,8.63
2023-05-18T11:47:10.769Z,8.51
2023-05-18T11:50:12.677Z,8.44
2023-05-18T11:53:17.961Z,8.35
2023-05-18T11:56:19.679Z,8.32
2023-05-18T11:59:32.488Z,8.31
2023-05-18T12:02:35.128Z,8.31
2023-05-18T12:05:37.320Z,8.37
2023-05-18T12:08:39.356Z,8.41
2023-05-18T12:11:41.435Z,8.46
2023-05-18T12:14:44.363Z,8.62
2023-05-18T12:17:47.848Z,8.78
2023-05-18T12:20:49.896Z,8.88
2023-05-18T12:23:58.881Z,8.95
2023-05-18T12:27:00.510Z,9.02
2023-05-18T12:30:02.194Z,9.04
2023-05-18T12:33:04.341Z,9.05
2023-05-18T12:36:10.370Z,9.08
2023-05-18T12:39:15.240Z,9.08
2023-05-18T12:42:16.935Z,9.07
2023-05-18T12:45:18.732Z,9.07
2023-05-18T12:48:20.437Z,9.09
2023-05-18T12:51:22.110Z,9.11
2023-05-18T12:54:29.933Z,9.13
2023-05-18T12:57:31.653Z,9.09
2023-05-18T13:00:34.745Z,9.02
2023-05-18T13:03:39.871Z,9.03
2023-05-18T13:06:41.725Z,8.98
2023-05-18T13:09:46.606Z,8.98
2023-05-18T13:12:49.587Z,8.92
2023-05-18T13:15:51.257Z,8.91
2023-05-18T13:19:01.162Z,8.92
2023-05-18T13:22:02.812Z,8.91
2023-05-18T13:25:04.965Z,8.88
2023-05-18T13:28:07.098Z,8.86
2023-05-18T13:31:09.958Z,8.96
2023-05-18T13:34:12.607Z,9.05
2023-05-18T13:37:14.885Z,9.13
2023-05-18T13:40:17.370Z,9.21
2023-05-18T13:43:19.055Z,9.28
2023-05-18T13:46:20.801Z,9.29
2023-05-18T13:49:22.391Z,9.34
2023-05-18T13:52:24.108Z,9.39
2023-05-18T13:55:25.857Z,9.47
2023-05-18T13:58:27.576Z,9.45
2023-05-18T14:01:29.188Z,9.45
2023-05-18T14:04:30.901Z,9.31
2023-05-18T14:07:32.452Z,9.11
2023-05-18T14:10:34.166Z,8.93
2023-05-18T14:13:35.923Z,8.85
2023-05-18T14:16:37.516Z,8.82
2023-05-18T14:19:39.820Z,8.93
2023-05-18T14:22:42.156Z,8.99
2023-05-18T14:25:43.985Z,9.07
2023-05-18T14:28:45.702Z,9.14
2023-05-18T14:31:47.424Z,9.16
2023-05-18T14:34:49.359Z,9.16
2023-05-18T14:37:50.940Z,9.08
2023-05-18T14:40:53.221Z,8.97
2023-05-18T14:43:54.854Z,8.85
2023-05-18T14:46:56.622Z,8.74
2023-05-18T14:49:58.238Z,8.68
2023-05-18T14:52:59.909Z,8.66
2023-05-18T14:56:01.675Z,8.63
2023-05-18T14:59:03.355Z,8.55
2023-05-18T15:02:05.248Z,8.49
2023-05-18T15:05:07.247Z,8.44
2023-05-18T15:08:08.899Z,8.41
2023-05-18T15:11:10.627Z,8.38
2023-05-18T15:14:12.289Z,8.34
2023-05-18T15:17:13.906Z,8.31
2023-05-18T15:20:15.637Z,8.29
2023-05-18T15:23:17.615Z,8.29
2023-05-18T15:26:19.230Z,8.26
2023-05-18T15:29:21.008Z,8.21
2023-05-18T15:32:22.587Z,8.23
2023-05-18T15:35:24.470Z,8.21
2023-05-18T15:38:27.265Z,8.19
2023-05-18T15:41:33.005Z,8.16
2023-05-18T15:44:34.662Z,8.12
2023-05-18T15:47:36.243Z,8.08
2023-05-18T15:50:37.871Z,8.11
2023-05-18T15:53:39.463Z,8.12
2023-05-18T15:56:41.112Z,8.10
2023-05-18T15:59:42.882Z,8.06
2023-05-18T16:02:44.633Z,8.04
2023-05-18T16:05:46.394Z,8.01
2023-05-18T16:08:48.078Z,7.98
2023-05-18T16:11:49.674Z,7.98
2023-05-18T16:14:51.353Z,8.01
2023-05-18T16:17:53.127Z,8.03
2023-05-18T16:20:54.902Z,8.03
2023-05-18T16:23:56.537Z,8.05
2023-05-18T16:26:58.322Z,8.08
2023-05-18T16:30:00.015Z,8.08
2023-05-18T16:33:01.834Z,8.07
2023-05-18T16:36:04.249Z,8.07
2023-05-18T16:39:05.855Z,8.08
2023-05-18T16:42:07.849Z,8.10
2023-05-18T16:45:09.923Z,8.13
2023-05-18T16:48:11.613Z,8.13
2023-05-18T16:51:13.199Z,8.14
2023-05-18T16:54:15.004Z,8.15
2023-05-18T16:57:16.577Z,8.17
2023-05-18T17:00:18.970Z,8.18
2023-05-18T17:03:20.765Z,8.19
2023-05-18T17:06:22.458Z,8.19
2023-05-18T17:09:24.135Z,8.18
2023-05-18T17:12:25.735Z,8.18
2023-05-18T17:15:27.393Z,8.19
2023-05-18T17:18:28.958Z,8.19
2023-05-18T17:21:30.636Z,8.20
2023-05-18T17:24:32.299Z,8.17
2023-05-18T17:27:33.936Z,8.15
2023-05-18T17:30:35.594Z,8.14
2023-05-18T17:33:37.128Z,8.14
2023-05-18T17:36:38.821Z,8.13
2023-05-18T17:39:40.552Z,8.12
2023-05-18T17:42:42.149Z,8.11
2023-05-18T17:45:43.861Z,8.12
2023-05-18T17:48:45.479Z,8.13
2023-05-18T17:51:47.223Z,8.13
2023-05-18T17:54:49.005Z,8.14
2023-05-18T17:57:51.238Z,8.14
2023-05-18T18:00:52.851Z,8.12
2023-05-18T18:03:55.084Z,8.11
2023-05-18T18:06:56.899Z,8.08
2023-05-18T18:09:58.556Z,8.01
2023-05-18T18:13:00.144Z,7.79
2023-05-18T18:16:02.996Z,7.51
2023-05-18T18:19:04.686Z,7.42
2023-05-18T18:22:06.738Z,7.36
2023-05-18T18:25:08.568Z,7.29
2023-05-18T18:28:10.188Z,7.28
2023-05-18T18:31:11.902Z,7.27
2023-05-18T18:34:13.549Z,7.26
2023-05-18T18:37:15.211Z,7.27
2023-05-18T18:40:16.939Z,7.25
2023-05-18T18:43:18.492Z,7.22
2023-05-18T18:46:20.484Z,7.20
2023-05-18T18:49:22.242Z,7.18
2023-05-18T18:52:23.953Z,7.19
2023-05-18T18:55:25.567Z,7.24
2023-05-18T18:58:27.214Z,7.22
2023-05-18T19:01:28.879Z,7.19
2023-05-18T19:04:30.994Z,7.22
2023-05-18T19:07:33.437Z,7.20
2023-05-18T19:10:35.653Z,7.19
2023-05-18T19:13:37.376Z,7.21
2023-05-18T19:16:39.165Z,7.19
2023-05-18T19:19:40.843Z,7.21
2023-05-18T19:22:42.427Z,7.19
2023-05-18T19:25:44.638Z,7.19
2023-05-18T19:28:46.485Z,7.20
2023-05-18T19:31:48.289Z,7.17
2023-05-18T19:34:50.048Z,7.21
2023-05-18T19:37:51.842Z,7.20
2023-05-18T19:40:56.785Z,7.19
2023-05-18T19:43:58.370Z,7.21
2023-05-18T19:47:00.108Z,7.19
2023-05-18T19:50:01.895Z,7.21
2023-05-18T19:53:03.564Z,7.19
2023-05-18T19:56:05.411Z,7.18
2023-05-18T19:59:07.013Z,7.20
2023-05-18T20:02:09.005Z,7.16
2023-05-18T20:05:10.803Z,7.17
2023-05-18T20:08:12.440Z,7.17
2023-05-18T20:11:14.576Z,7.17
2023-05-18T20:14:16.130Z,7.19
2023-05-18T20:17:17.875Z,7.16
2023-05-18T20:20:19.423Z,7.17
2023-05-18T20:23:21.042Z,7.18
2023-05-18T20:26:23.382Z,7.15
2023-05-18T20:29:25.065Z,7.17
2023-05-18T20:32:26.645Z,7.16
2023-05-18T20:35:28.275Z,7.14
2023-05-18T20:38:29.885Z,7.14
2023-05-18T20:41:31.490Z,7.12
2023-05-18T20:44:33.154Z,7.14
2023-05-18T20:47:35.250Z,7.17
2023-05-18T20:50:36.893Z,7.22
2023-05-18T20:53:38.492Z,7.31
2023-05-18T20:56:40.086Z,7.38
2023-05-18T20:59:41.886Z,7.44
2023-05-18T21:02:44.536Z,7.49
2023-05-18T21:05:46.354Z,7.52
2023-05-18T21:08:50.522Z,7.56
2023-05-18T21:11:52.330Z,7.59
2023-05-18T21:14:54.112Z,7.62
2023-05-18T21:17:55.818Z,7.63
2023-05-18T21:20:57.452Z,7.65
2023-05-18T21:23:59.105Z,7.66
2023-05-18T21:27:00.775Z,7.69
2023-05-18T21:30:02.524Z,7.70
2023-05-18T21:33:04.261Z,7.70
2023-05-18T21:36:06.269Z,7.71
2023-05-18T21:39:08.008Z,7.71
2023-05-18T21:42:10.281Z,7.72
2023-05-18T21:45:12.620Z,7.72
2023-05-18T21:48:14.436Z,7.73
2023-05-18T21:51:16.973Z,7.72
2023-05-18T21:54:18.615Z,7.71
2023-05-18T21:57:20.315Z,7.72
2023-05-18T22:00:22.094Z,7.73
2023-05-18T22:03:24.212Z,7.73
2023-05-18T22:06:25.957Z,7.74
2023-05-18T22:09:27.596Z,7.74
2023-05-18T22:12:29.238Z,7.73
2023-05-18T22:15:30.794Z,7.74
2023-05-18T22:18:32.459Z,7.75
2023-05-18T22:21:34.082Z,7.73
2023-05-18T22:24:35.743Z,7.74
2023-05-18T22:27:37.455Z,7.75
2023-05-18T22:30:39.601Z,7.75
2023-05-18T22:33:41.248Z,7.73
2023-05-18T22:36:42.905Z,7.73
2023-05-18T22:39:44.726Z,7.73
2023-05-18T22:42:46.489Z,7.74
2023-05-18T22:45:48.772Z,7.74
2023-05-18T22:48:50.343Z,7.73
2023-05-18T22:51:51.988Z,7.73
2023-05-18T22:54:53.688Z,7.73
2023-05-18T22:57:55.366Z,7.74
2023-05-18T23:00:57.157Z,7.73
2023-05-18T23:03:58.834Z,7.74
2023-05-18T23:07:00.702Z,7.75
2023-05-18T23:10:07.706Z,7.74
2023-05-18T23:13:10.826Z,7.75
2023-05-18T23:16:12.444Z,7.73
2023-05-18T23:19:14.076Z,7.71
2023-05-18T23:22:16.548Z,7.72
2023-05-18T23:25:18.441Z,7.72
2023-05-18T23:28:20.160Z,7.72
2023-05-18T23:31:21.848Z,7.71
2023-05-18T23:34:23.834Z,7.70
2023-05-18T23:37:25.828Z,7.69
2023-05-18T23:40:28.205Z,7.68
2023-05-18T23:43:30.214Z,7.68
2023-05-18T23:46:32.143Z,7.67
2023-05-18T23:49:34.045Z,7.66
2023-05-18T23:52:36.401Z,7.65
2023-05-18T23:55:40.104Z,7.63
2023-05-18T23:58:43.007Z,7.59
